createdAt,value
2017-10-07T00:00:06.903Z,89.35
2017-10-07T00:02:36.110Z,89.21
2017-10-07T00:05:06.120Z,88.98
2017-10-07T00:07:35.326Z,89.13
2017-10-07T00:10:04.556Z,89.22
2017-10-07T00:12:35.296Z,89.21
2017-10-07T00:15:04.515Z,89.21
2017-10-07T00:17:34.534Z,89.16
2017-10-07T00:20:03.743Z,88.86
2017-10-07T00:22:32.980Z,89.13
2017-10-07T00:25:02.198Z,88.76
2017-10-07T00:27:31.430Z,88.61
2017-10-07T00:30:01.404Z,88.82
2017-10-07T00:32:30.722Z,88.99
2017-10-07T00:35:00.705Z,88.69
2017-10-07T00:37:29.935Z,88.64
2017-10-07T00:39:59.151Z,88.59
2017-10-07T00:42:29.119Z,88.66
2017-10-07T00:44:58.354Z,88.46
2017-10-07T00:47:28.327Z,88.89
2017-10-07T00:49:57.567Z,88.71
2017-10-07T00:52:27.542Z,88.73
2017-10-07T00:54:56.771Z,88.98
2017-10-07T00:57:25.987Z,88.54
2017-10-07T00:59:55.951Z,88.53
2017-10-07T01:02:25.955Z,88.30
2017-10-07T01:04:55.163Z,88.33
2017-10-07T01:07:24.395Z,88.46
2017-10-07T01:09:54.474Z,88.22
2017-10-07T01:12:23.676Z,88.23
2017-10-07T01:14:52.888Z,87.75
2017-10-07T01:17:22.118Z,88.11
2017-10-07T01:19:52.211Z,88.33
2017-10-07T01:22:21.436Z,88.48
2017-10-07T01:24:51.416Z,88.38
2017-10-07T01:27:20.653Z,88.17
2017-10-07T01:29:50.643Z,88.16
2017-10-07T01:32:19.842Z,88.20
2017-10-07T01:34:49.078Z,88.35
2017-10-07T01:37:18.291Z,88.66
2017-10-07T01:39:47.518Z,88.63
2017-10-07T01:42:16.746Z,88.75
2017-10-07T01:44:46.732Z,88.44
2017-10-07T01:47:15.944Z,88.89
2017-10-07T01:49:45.191Z,88.93
2017-10-07T01:52:14.443Z,89.02
2017-10-07T01:54:43.658Z,88.48
2017-10-07T01:57:13.661Z,88.59
2017-10-07T01:59:42.867Z,88.70
2017-10-07T02:02:12.861Z,88.57
2017-10-07T02:04:42.109Z,88.68
2017-10-07T02:07:11.311Z,88.95
2017-10-07T02:09:40.523Z,89.60
2017-10-07T02:12:09.728Z,90.16
2017-10-07T02:14:38.962Z,90.13
2017-10-07T02:17:08.190Z,90.17
2017-10-07T02:19:37.402Z,89.99
2017-10-07T02:22:06.622Z,89.92
2017-10-07T02:24:36.603Z,90.00
2017-10-07T02:27:05.839Z,89.80
2017-10-07T02:29:35.054Z,89.77
2017-10-07T02:32:04.284Z,89.85
2017-10-07T02:34:34.287Z,89.75
2017-10-07T02:37:03.485Z,89.80
2017-10-07T02:39:33.481Z,89.42
2017-10-07T02:42:02.731Z,89.31
2017-10-07T02:44:31.961Z,89.28
2017-10-07T02:47:01.205Z,88.95
2017-10-07T02:49:31.190Z,89.04
2017-10-07T02:52:01.191Z,89.01
2017-10-07T02:54:30.460Z,89.33
2017-10-07T02:56:59.707Z,89.03
2017-10-07T02:59:28.929Z,89.03
2017-10-07T03:01:58.936Z,89.11
2017-10-07T03:04:28.138Z,89.17
2017-10-07T03:06:58.118Z,88.98
2017-10-07T03:09:27.314Z,89.12
2017-10-07T03:11:56.546Z,89.50
2017-10-07T03:14:26.519Z,89.21
2017-10-07T03:16:56.550Z,89.12
2017-10-07T03:19:25.760Z,89.18
2017-10-07T03:21:54.963Z,88.94
2017-10-07T03:24:24.954Z,88.89
2017-10-07T03:26:54.159Z,88.67
2017-10-07T03:29:23.383Z,88.64
2017-10-07T03:31:53.367Z,88.62
2017-10-07T03:34:22.588Z,88.38
2017-10-07T03:36:51.799Z,88.31
2017-10-07T03:39:21.797Z,88.44
2017-10-07T03:41:51.002Z,88.68
2017-10-07T03:44:21.012Z,87.94
2017-10-07T03:46:50.231Z,88.33
2017-10-07T03:49:20.201Z,88.22
2017-10-07T03:51:50.187Z,88.05
2017-10-07T03:54:19.426Z,88.05
2017-10-07T03:56:48.643Z,87.76
2017-10-07T03:59:17.843Z,87.84
2017-10-07T04:01:47.847Z,87.74
2017-10-07T04:04:17.066Z,87.27
2017-10-07T04:06:47.073Z,87.47
2017-10-07T04:09:16.265Z,87.32
2017-10-07T04:11:45.475Z,87.26
2017-10-07T04:14:15.456Z,87.15
2017-10-07T04:16:44.651Z,87.26
2017-10-07T04:19:13.892Z,87.22
2017-10-07T04:21:43.875Z,86.46
2017-10-07T04:24:13.115Z,86.76
2017-10-07T04:26:42.313Z,86.72
2017-10-07T04:29:11.520Z,86.67
2017-10-07T04:31:40.814Z,86.52
2017-10-07T04:34:10.029Z,86.39
2017-10-07T04:36:39.243Z,86.53
2017-10-07T04:39:08.440Z,86.53
2017-10-07T04:41:37.694Z,86.20
2017-10-07T04:44:06.909Z,86.03
2017-10-07T04:46:36.147Z,85.81
2017-10-07T04:49:05.335Z,85.50
2017-10-07T04:51:34.560Z,85.63
2017-10-07T04:54:04.543Z,85.71
2017-10-07T04:56:33.755Z,85.77
2017-10-07T04:59:02.964Z,85.32
2017-10-07T05:01:32.166Z,85.43
2017-10-07T05:04:01.387Z,85.11
2017-10-07T05:06:31.349Z,85.03
2017-10-07T05:09:00.599Z,85.02
2017-10-07T05:11:30.567Z,85.23
2017-10-07T05:13:59.783Z,84.87
2017-10-07T05:16:29.151Z,84.40
2017-10-07T05:18:58.338Z,84.72
2017-10-07T05:21:27.563Z,84.74
2017-10-07T05:23:56.771Z,84.15
2017-10-07T05:26:26.110Z,84.16
2017-10-07T05:28:55.331Z,84.08
2017-10-07T05:31:24.587Z,83.90
2017-10-07T05:33:53.783Z,83.55
2017-10-07T05:36:23.757Z,83.56
2017-10-07T05:38:52.970Z,82.92
2017-10-07T05:41:22.179Z,83.33
2017-10-07T05:43:51.403Z,82.85
2017-10-07T05:46:20.703Z,82.61
2017-10-07T05:48:50.780Z,82.02
2017-10-07T05:51:19.983Z,82.25
2017-10-07T05:53:49.228Z,82.16
2017-10-07T05:56:18.502Z,82.42
2017-10-07T05:58:48.661Z,82.06
2017-10-07T06:01:18.592Z,81.85
2017-10-07T06:03:47.819Z,81.73
2017-10-07T06:06:17.095Z,81.71
2017-10-07T06:08:46.345Z,81.47
2017-10-07T06:11:16.318Z,81.66
2017-10-07T06:13:45.519Z,80.83
2017-10-07T06:16:14.772Z,80.79
2017-10-07T06:18:44.006Z,81.21
2017-10-07T06:21:13.223Z,81.17
2017-10-07T06:23:42.443Z,80.71
2017-10-07T06:26:12.422Z,80.29
2017-10-07T06:28:41.623Z,80.43
2017-10-07T06:31:10.852Z,80.35
2017-10-07T06:33:40.852Z,80.58
2017-10-07T06:36:10.054Z,80.33
2017-10-07T06:38:39.252Z,79.54
2017-10-07T06:41:09.227Z,79.45
2017-10-07T06:43:38.527Z,79.35
2017-10-07T06:46:07.708Z,79.37
2017-10-07T06:48:37.664Z,78.91
2017-10-07T06:51:07.063Z,79.00
2017-10-07T06:53:36.339Z,78.47
2017-10-07T06:56:05.570Z,78.30
2017-10-07T06:58:34.800Z,78.79
2017-10-07T07:01:04.360Z,78.21
2017-10-07T07:03:33.572Z,77.64
2017-10-07T07:06:02.766Z,77.76
2017-10-07T07:08:31.995Z,78.24
2017-10-07T07:11:01.206Z,78.02
2017-10-07T07:13:30.428Z,77.08
2017-10-07T07:15:59.658Z,77.62
2017-10-07T07:18:28.860Z,76.74
2017-10-07T07:20:58.067Z,76.51
2017-10-07T07:23:28.066Z,76.73
2017-10-07T07:25:57.283Z,76.54
2017-10-07T07:28:27.275Z,75.61
2017-10-07T07:30:56.528Z,76.03
2017-10-07T07:33:25.763Z,76.20
2017-10-07T07:35:55.003Z,75.50
2017-10-07T07:38:24.211Z,75.53
2017-10-07T07:40:53.459Z,76.06
2017-10-07T07:43:22.685Z,75.72
2017-10-07T07:45:52.694Z,76.00
2017-10-07T07:48:22.675Z,75.93
2017-10-07T07:50:51.916Z,75.62
2017-10-07T07:53:21.901Z,75.81
2017-10-07T07:55:51.143Z,76.08
2017-10-07T07:58:20.368Z,75.73
2017-10-07T08:00:49.601Z,75.79
2017-10-07T08:03:18.823Z,75.26
2017-10-07T08:05:48.801Z,75.05
2017-10-07T08:08:18.012Z,75.54
2017-10-07T08:10:47.248Z,75.65
2017-10-07T08:13:16.493Z,76.13
2017-10-07T08:15:45.727Z,74.67
2017-10-07T08:18:14.936Z,75.19
2017-10-07T08:20:44.940Z,75.06
2017-10-07T08:23:15.013Z,75.41
2017-10-07T08:25:45.017Z,74.21
2017-10-07T08:28:14.218Z,73.55
2017-10-07T08:30:43.467Z,73.34
2017-10-07T08:33:13.524Z,74.49
2017-10-07T08:35:42.781Z,73.98
2017-10-07T08:38:12.030Z,73.38
2017-10-07T08:40:41.260Z,74.41
2017-10-07T08:43:10.488Z,73.67
2017-10-07T08:45:39.729Z,73.89
2017-10-07T08:48:08.983Z,74.26
2017-10-07T08:50:38.965Z,74.02
2017-10-07T08:53:08.176Z,73.43
2017-10-07T08:55:37.402Z,73.94
2017-10-07T08:58:06.634Z,74.68
2017-10-07T09:00:35.861Z,74.69
2017-10-07T09:03:05.107Z,74.71
2017-10-07T09:05:34.327Z,74.42
2017-10-07T09:08:03.524Z,74.83
2017-10-07T09:10:32.740Z,74.32
2017-10-07T09:13:02.042Z,73.92
2017-10-07T09:15:31.291Z,74.46
2017-10-07T09:18:01.287Z,74.60
2017-10-07T09:20:31.275Z,74.42
2017-10-07T09:23:00.503Z,75.11
2017-10-07T09:25:30.493Z,75.07
2017-10-07T09:27:59.714Z,74.85
2017-10-07T09:30:29.733Z,75.73
2017-10-07T09:32:59.738Z,76.32
2017-10-07T09:35:29.751Z,76.72
2017-10-07T09:37:59.795Z,77.70
2017-10-07T09:40:29.041Z,77.28
2017-10-07T09:42:58.249Z,77.36
2017-10-07T09:45:27.477Z,77.07
2017-10-07T09:47:56.971Z,76.88
2017-10-07T09:50:26.214Z,76.26
2017-10-07T09:52:55.525Z,76.90
2017-10-07T09:55:24.755Z,76.05
2017-10-07T09:57:53.963Z,75.74
2017-10-07T10:00:23.971Z,75.53
2017-10-07T10:02:53.674Z,75.36
2017-10-07T10:05:25.626Z,74.68
2017-10-07T10:07:55.033Z,75.23
2017-10-07T10:10:26.239Z,74.23
2017-10-07T10:12:55.617Z,73.74
2017-10-07T10:15:25.908Z,73.66
2017-10-07T10:17:55.159Z,74.22
2017-10-07T10:20:24.434Z,74.27
2017-10-07T10:22:53.672Z,73.30
2017-10-07T10:25:22.914Z,73.27
2017-10-07T10:27:52.957Z,72.50
2017-10-07T10:30:22.196Z,73.37
2017-10-07T10:32:51.433Z,71.67
2017-10-07T10:35:21.455Z,72.08
2017-10-07T10:37:51.428Z,72.69
2017-10-07T10:40:20.683Z,72.35
2017-10-07T10:42:49.935Z,73.13
2017-10-07T10:45:19.146Z,73.68
2017-10-07T10:47:48.385Z,74.25
2017-10-07T10:50:17.603Z,73.52
2017-10-07T10:52:46.859Z,73.40
2017-10-07T10:55:16.880Z,73.35
2017-10-07T10:57:46.114Z,73.49
2017-10-07T11:00:15.379Z,73.58
2017-10-07T11:02:44.690Z,73.23
2017-10-07T11:05:13.926Z,72.84
2017-10-07T11:07:43.170Z,73.21
2017-10-07T11:10:12.440Z,73.80
2017-10-07T11:12:41.671Z,73.90
2017-10-07T11:15:10.935Z,76.27
2017-10-07T11:17:40.164Z,77.09
2017-10-07T11:20:10.185Z,77.89
2017-10-07T11:22:39.429Z,80.65
2017-10-07T11:25:08.654Z,82.36
2017-10-07T11:27:37.843Z,82.33
2017-10-07T11:30:07.258Z,83.75
2017-10-07T11:32:37.244Z,83.33
2017-10-07T11:35:06.473Z,84.68
2017-10-07T11:37:35.674Z,84.60
2017-10-07T11:40:05.724Z,83.68
2017-10-07T11:42:35.032Z,83.91
2017-10-07T11:45:04.235Z,84.09
2017-10-07T11:47:33.467Z,84.58
2017-10-07T11:50:02.728Z,85.34
2017-10-07T11:52:31.962Z,86.15
2017-10-07T11:55:01.196Z,86.60
2017-10-07T11:57:30.405Z,86.30
2017-10-07T11:59:59.648Z,86.92
2017-10-07T12:02:28.908Z,86.81
2017-10-07T12:04:58.169Z,86.73
2017-10-07T12:07:27.375Z,87.56
2017-10-07T12:09:56.655Z,86.94
2017-10-07T12:12:25.851Z,87.59
2017-10-07T12:14:55.088Z,87.94
2017-10-07T12:17:24.331Z,88.85
2017-10-07T12:19:53.559Z,88.42
2017-10-07T12:22:23.539Z,88.56
2017-10-07T12:24:52.783Z,88.96
2017-10-07T12:27:22.002Z,88.46
2017-10-07T12:29:51.265Z,88.99
2017-10-07T12:32:21.259Z,89.01
2017-10-07T12:34:50.588Z,89.13
2017-10-07T12:37:19.868Z,88.85
2017-10-07T12:39:49.075Z,88.93
2017-10-07T12:42:18.290Z,89.14
2017-10-07T12:44:48.406Z,89.01
2017-10-07T12:47:17.587Z,88.90
2017-10-07T12:49:46.868Z,88.71
2017-10-07T12:52:16.097Z,88.32
2017-10-07T12:54:46.106Z,88.54
2017-10-07T12:57:15.339Z,88.98
2017-10-07T12:59:44.543Z,88.68
2017-10-07T13:02:13.799Z,89.04
2017-10-07T13:04:43.015Z,88.88
2017-10-07T13:07:12.250Z,89.04
2017-10-07T13:09:41.497Z,89.28
2017-10-07T13:12:11.487Z,88.83
2017-10-07T13:14:40.735Z,89.44
2017-10-07T13:17:10.006Z,89.44
2017-10-07T13:19:39.268Z,89.47
2017-10-07T13:22:08.917Z,89.99
2017-10-07T13:24:39.689Z,89.86
2017-10-07T13:27:08.912Z,89.98
2017-10-07T13:29:38.895Z,90.19
2017-10-07T13:32:08.143Z,90.74
2017-10-07T13:34:37.364Z,90.42
2017-10-07T13:37:06.617Z,90.33
2017-10-07T13:39:35.855Z,90.41
2017-10-07T13:42:05.073Z,90.72
2017-10-07T13:44:34.344Z,90.30
2017-10-07T13:47:04.384Z,90.41
2017-10-07T13:49:33.646Z,90.60
2017-10-07T13:52:02.865Z,90.58
2017-10-07T13:54:32.908Z,90.70
2017-10-07T13:57:02.116Z,91.02
2017-10-07T13:59:31.345Z,91.02
2017-10-07T14:02:01.338Z,90.94
2017-10-07T14:04:30.584Z,90.89
2017-10-07T14:07:00.607Z,90.45
2017-10-07T14:09:30.691Z,90.44
2017-10-07T14:11:59.965Z,90.81
2017-10-07T14:14:29.193Z,90.49
2017-10-07T14:16:58.442Z,90.81
2017-10-07T14:19:27.661Z,90.70
2017-10-07T14:21:56.911Z,90.45
2017-10-07T14:24:26.186Z,90.24
2017-10-07T14:26:55.411Z,90.57
2017-10-07T14:29:25.467Z,89.97
2017-10-07T14:31:54.733Z,90.18
2017-10-07T14:34:24.723Z,90.24
2017-10-07T14:36:53.994Z,90.01
2017-10-07T14:39:23.273Z,90.31
2017-10-07T14:41:52.658Z,90.06
2017-10-07T14:44:21.924Z,90.07
2017-10-07T14:46:51.289Z,90.32
2017-10-07T14:49:20.500Z,90.17
2017-10-07T14:51:49.745Z,90.30
2017-10-07T14:54:19.747Z,89.97
2017-10-07T14:56:49.762Z,90.57
2017-10-07T14:59:18.989Z,90.97
2017-10-07T15:01:48.219Z,90.94
2017-10-07T15:04:17.518Z,91.37
2017-10-07T15:06:46.712Z,91.15
2017-10-07T15:09:15.997Z,91.41
2017-10-07T15:11:45.206Z,91.49
2017-10-07T15:14:14.444Z,91.12
2017-10-07T15:16:43.679Z,91.17
2017-10-07T15:19:12.915Z,91.36
2017-10-07T15:21:42.989Z,91.28
2017-10-07T15:24:12.240Z,91.58
2017-10-07T15:26:41.498Z,91.98
2017-10-07T15:29:10.703Z,91.73
2017-10-07T15:31:39.950Z,91.74
2017-10-07T15:34:09.197Z,91.88
2017-10-07T15:36:38.439Z,91.77
2017-10-07T15:39:07.708Z,91.92
2017-10-07T15:41:36.941Z,91.76
2017-10-07T15:44:06.199Z,91.80
2017-10-07T15:46:35.431Z,91.79
2017-10-07T15:49:04.664Z,92.08
2017-10-07T15:51:33.896Z,92.16
2017-10-07T15:54:03.134Z,92.17
2017-10-07T15:56:32.370Z,92.25
2017-10-07T15:59:01.636Z,91.92
2017-10-07T16:01:30.846Z,92.04
2017-10-07T16:04:00.134Z,92.10
2017-10-07T16:06:29.378Z,92.10
2017-10-07T16:08:58.679Z,92.29
2017-10-07T16:11:27.939Z,92.24
2017-10-07T16:13:57.947Z,92.35
2017-10-07T16:16:27.182Z,92.43
2017-10-07T16:18:56.415Z,92.62
2017-10-07T16:21:25.692Z,92.71
2017-10-07T16:23:54.919Z,92.88
2017-10-07T16:26:24.195Z,92.71
2017-10-07T16:28:53.390Z,92.71
2017-10-07T16:31:22.678Z,92.95
2017-10-07T16:33:52.686Z,92.74
2017-10-07T16:36:21.914Z,92.99
2017-10-07T16:38:51.164Z,93.11
2017-10-07T16:41:20.407Z,93.20
2017-10-07T16:43:49.649Z,93.14
2017-10-07T16:46:19.634Z,93.35
2017-10-07T16:48:49.826Z,93.19
2017-10-07T16:51:19.072Z,93.21
2017-10-07T16:53:48.311Z,93.14
2017-10-07T16:56:17.540Z,93.16
2017-10-07T16:58:46.757Z,93.13
2017-10-07T17:01:15.973Z,93.16
2017-10-07T17:03:45.233Z,93.03
2017-10-07T17:06:15.212Z,92.94
2017-10-07T17:08:44.447Z,92.73
2017-10-07T17:11:14.439Z,92.41
2017-10-07T17:13:44.045Z,92.27
2017-10-07T17:16:13.236Z,92.71
2017-10-07T17:18:42.455Z,92.63
2017-10-07T17:21:11.684Z,92.69
2017-10-07T17:23:40.881Z,92.78
2017-10-07T17:26:10.896Z,92.51
2017-10-07T17:28:40.149Z,92.21
2017-10-07T17:31:10.219Z,92.15
2017-10-07T17:33:40.161Z,92.12
2017-10-07T17:36:09.417Z,92.30
2017-10-07T17:38:38.728Z,92.57
2017-10-07T17:41:07.943Z,92.23
2017-10-07T17:43:37.246Z,92.23
2017-10-07T17:46:07.416Z,92.17
2017-10-07T17:48:36.651Z,92.13
2017-10-07T17:51:06.799Z,91.70
2017-10-07T17:53:36.063Z,91.74
2017-10-07T17:56:05.314Z,92.36
2017-10-07T17:58:34.546Z,91.94
2017-10-07T18:01:03.810Z,92.05
2017-10-07T18:03:33.048Z,91.87
2017-10-07T18:06:02.317Z,92.46
2017-10-07T18:08:31.545Z,92.22
2017-10-07T18:11:00.768Z,92.70
2017-10-07T18:13:30.858Z,92.60
2017-10-07T18:16:00.083Z,92.71
2017-10-07T18:18:30.109Z,92.88
2017-10-07T18:20:59.415Z,92.96
2017-10-07T18:23:28.696Z,92.99
2017-10-07T18:25:58.815Z,92.79
2017-10-07T18:28:29.011Z,92.76
2017-10-07T18:30:58.249Z,92.72
2017-10-07T18:33:27.475Z,92.83
2017-10-07T18:35:56.810Z,92.86
2017-10-07T18:38:26.041Z,92.96
2017-10-07T18:40:56.239Z,92.89
2017-10-07T18:43:26.280Z,92.96
2017-10-07T18:45:55.499Z,92.73
2017-10-07T18:48:24.704Z,92.75
2017-10-07T18:50:54.700Z,92.65
2017-10-07T18:53:24.682Z,92.52
2017-10-07T18:55:54.699Z,92.60
2017-10-07T18:58:23.924Z,92.67
2017-10-07T19:00:53.159Z,92.81
2017-10-07T19:03:22.429Z,92.89
2017-10-07T19:05:51.640Z,93.20
2017-10-07T19:08:20.898Z,92.81
2017-10-07T19:10:50.899Z,93.06
2017-10-07T19:13:20.148Z,92.81
2017-10-07T19:15:49.450Z,92.59
2017-10-07T19:18:18.658Z,93.01
2017-10-07T19:20:48.002Z,93.04
2017-10-07T19:23:17.202Z,93.11
2017-10-07T19:25:47.217Z,93.20
2017-10-07T19:28:17.209Z,93.34
2017-10-07T19:30:47.268Z,93.26
2017-10-07T19:33:16.569Z,93.46
2017-10-07T19:35:45.869Z,93.27
2017-10-07T19:38:15.839Z,93.64
2017-10-07T19:40:45.086Z,93.69
2017-10-07T19:43:14.318Z,93.61
2017-10-07T19:45:43.543Z,93.94
2017-10-07T19:48:12.759Z,93.92
2017-10-07T19:50:42.888Z,93.88
2017-10-07T19:53:12.204Z,93.52
2017-10-07T19:55:41.443Z,93.40
2017-10-07T19:58:10.737Z,93.73
2017-10-07T20:00:40.025Z,93.76
2017-10-07T20:03:09.258Z,93.75
2017-10-07T20:05:38.676Z,93.39
2017-10-07T20:08:08.680Z,93.43
2017-10-07T20:10:37.959Z,93.71
2017-10-07T20:13:07.189Z,93.60
2017-10-07T20:15:37.228Z,93.68
2017-10-07T20:18:06.573Z,93.76
2017-10-07T20:20:37.031Z,93.65
2017-10-07T20:23:09.232Z,93.67
2017-10-07T20:25:38.464Z,93.54
2017-10-07T20:28:07.714Z,93.24
2017-10-07T20:30:37.729Z,93.22
2017-10-07T20:33:06.927Z,93.51
2017-10-07T20:35:36.198Z,93.62
2017-10-07T20:38:05.372Z,93.27
2017-10-07T20:40:34.579Z,93.60
2017-10-07T20:43:03.833Z,93.36
2017-10-07T20:45:33.024Z,93.04
2017-10-07T20:48:02.242Z,93.59
2017-10-07T20:50:32.231Z,93.58
2017-10-07T20:53:02.227Z,93.73
2017-10-07T20:55:32.229Z,93.41
2017-10-07T20:58:01.521Z,93.30
2017-10-07T21:00:30.816Z,93.49
2017-10-07T21:03:00.073Z,93.66
2017-10-07T21:05:29.319Z,93.50
2017-10-07T21:07:58.548Z,93.27
2017-10-07T21:10:27.802Z,93.49
2017-10-07T21:12:57.078Z,93.15
2017-10-07T21:15:26.305Z,93.01
2017-10-07T21:17:55.541Z,93.08
2017-10-07T21:20:25.029Z,93.47
2017-10-07T21:22:55.019Z,93.01
2017-10-07T21:25:24.383Z,93.15
2017-10-07T21:27:53.729Z,93.24
2017-10-07T21:30:22.979Z,93.26
2017-10-07T21:32:52.244Z,93.41
2017-10-07T21:35:22.262Z,93.31
2017-10-07T21:37:51.534Z,93.37
2017-10-07T21:40:20.726Z,93.45
2017-10-07T21:42:49.999Z,93.44
2017-10-07T21:45:19.274Z,93.20
2017-10-07T21:47:48.538Z,93.49
2017-10-07T21:50:17.755Z,93.56
2017-10-07T21:52:47.771Z,93.46
2017-10-07T21:55:17.769Z,93.29
2017-10-07T21:57:47.014Z,92.93
2017-10-07T22:00:16.255Z,92.92
2017-10-07T22:02:45.482Z,93.17
2017-10-07T22:05:15.485Z,93.10
2017-10-07T22:07:45.005Z,93.42
2017-10-07T22:10:14.988Z,93.63
2017-10-07T22:12:44.218Z,93.63
2017-10-07T22:15:14.227Z,93.73
2017-10-07T22:17:44.213Z,93.79
2017-10-07T22:20:13.436Z,93.80
2017-10-07T22:22:42.747Z,93.77
2017-10-07T22:25:14.158Z,93.70
2017-10-07T22:27:45.289Z,93.46
2017-10-07T22:30:14.527Z,93.43
2017-10-07T22:32:44.608Z,93.57
2017-10-07T22:35:13.857Z,93.50
2017-10-07T22:37:43.849Z,93.72
2017-10-07T22:40:13.095Z,93.50
2017-10-07T22:42:42.382Z,93.70
2017-10-07T22:45:12.511Z,93.44
2017-10-07T22:47:42.592Z,93.29
2017-10-07T22:50:12.583Z,93.33
2017-10-07T22:52:41.816Z,93.20
2017-10-07T22:55:11.061Z,93.24
2017-10-07T22:57:40.310Z,93.38
2017-10-07T23:00:10.351Z,93.07
2017-10-07T23:02:39.591Z,93.08
2017-10-07T23:05:09.061Z,93.18
2017-10-07T23:07:39.038Z,93.57
2017-10-07T23:10:09.034Z,93.72
2017-10-07T23:12:38.354Z,93.57
2017-10-07T23:15:08.356Z,93.52
2017-10-07T23:17:37.609Z,93.37
2017-10-07T23:20:06.821Z,93.39
2017-10-07T23:22:36.080Z,93.62
2017-10-07T23:25:05.312Z,93.60
2017-10-07T23:27:35.387Z,93.80
2017-10-07T23:30:04.675Z,93.95
2017-10-07T23:32:34.698Z,93.93
2017-10-07T23:35:04.721Z,93.81
2017-10-07T23:37:33.964Z,93.83
2017-10-07T23:40:03.245Z,93.84
2017-10-07T23:42:32.459Z,93.92
2017-10-07T23:45:01.681Z,93.88
2017-10-07T23:47:30.917Z,93.69
2017-10-07T23:50:00.159Z,93.59
2017-10-07T23:52:29.378Z,93.65
2017-10-07T23:54:58.637Z,93.43
2017-10-07T23:57:27.890Z,93.40
2017-10-07T23:59:57.914Z,93.54
